Time;durP1;ratioP1;P1;durP2;ratioP2;P2;SDS_P1;SDS_P2;PMS_P1;PMS_P2;Temp;Humidity;BMP_temperature;BMP_pressure;BME280_temperature;BME280_humidity;BME280_pressure;Samples;Min_cycle;Max_cycle;Signal;HPM_P1;HPM_P2
2021/11/09 00:02:03;;;;;;;16.27;3.25;;;3.30;89.70;;;;;;6275107;28;20055;-81
2021/11/09 00:05:08;;;;;;;12.32;3.30;;;3.20;89.60;;;;;;6271428;28;20055;-80
2021/11/09 00:08:14;;;;;;;6.47;3.40;;;3.20;90.00;;;;;;6271362;28;20518;-81
2021/11/09 00:11:16;;;;;;;8.68;3.13;;;3.10;90.00;;;;;;6272619;28;20048;-81
2021/11/09 00:14:18;;;;;;;6.97;2.75;;;3.10;90.00;;;;;;6271554;28;20414;-81
2021/11/09 00:17:20;;;;;;;5.93;2.95;;;3.10;89.90;;;;;;6271918;28;20435;-81
2021/11/09 00:20:25;;;;;;;6.88;2.63;;;3.10;89.70;;;;;;6271550;28;20134;-81
2021/11/09 00:23:27;;;;;;;9.70;3.13;;;3.10;89.50;;;;;;6271846;28;20052;-81
2021/11/09 00:26:29;;;;;;;7.78;3.83;;;3.10;89.70;;;;;;6271911;28;20046;-81
2021/11/09 00:29:31;;;;;;;9.80;3.80;;;3.10;89.70;;;;;;6271969;28;20045;-81
2021/11/09 00:32:34;;;;;;;12.35;3.20;;;3.10;89.40;;;;;;6271857;28;20115;-81
2021/11/09 00:35:37;;;;;;;9.20;3.95;;;3.10;89.50;;;;;;6271640;28;20049;-81
2021/11/09 00:38:40;;;;;;;11.18;3.35;;;3.10;89.70;;;;;;6272292;28;20079;-81
2021/11/09 00:41:43;;;;;;;13.23;3.70;;;3.10;89.70;;;;;;6271949;28;20060;-80
2021/11/09 00:44:44;;;;;;;5.60;3.05;;;3.10;90.10;;;;;;6274164;28;20045;-81
2021/11/09 00:47:47;;;;;;;6.22;3.28;;;3.10;89.60;;;;;;6277934;28;20132;-81
2021/11/09 00:50:53;;;;;;;7.25;3.33;;;3.10;89.50;;;;;;6276810;28;20418;-81
2021/11/09 00:53:55;;;;;;;5.82;2.85;;;3.10;89.50;;;;;;6276836;28;20037;-81
2021/11/09 00:56:56;;;;;;;6.03;3.75;;;3.00;89.50;;;;;;6276842;28;20095;-81
2021/11/09 00:59:58;;;;;;;6.32;2.97;;;3.00;89.50;;;;;;6276615;28;20041;-80
2021/11/09 01:03:01;;;;;;;8.88;3.35;;;3.00;89.60;;;;;;6277290;28;20064;-81
2021/11/09 01:06:04;;;;;;;5.80;3.47;;;2.90;89.60;;;;;;6276989;28;20051;-81
2021/11/09 01:09:07;;;;;;;7.43;2.80;;;2.90;89.60;;;;;;6276800;28;20045;-82
2021/11/09 01:12:10;;;;;;;6.35;3.17;;;2.80;89.60;;;;;;6276589;28;20632;-80
2021/11/09 01:15:13;;;;;;;13.43;3.38;;;2.80;89.90;;;;;;6277200;28;20435;-81
2021/11/09 01:18:14;;;;;;;12.60;3.28;;;2.80;89.80;;;;;;6276530;28;20045;-81
2021/11/09 01:21:19;;;;;;;11.43;4.35;;;2.80;89.80;;;;;;6277462;28;20067;-82
2021/11/09 01:24:21;;;;;;;4.78;3.47;;;2.70;89.80;;;;;;6277547;28;20052;-82
2021/11/09 01:27:22;;;;;;;5.03;2.90;;;2.70;89.80;;;;;;6278133;28;20057;-81
2021/11/09 01:30:25;;;;;;;12.27;3.50;;;2.70;89.70;;;;;;6276296;28;20045;-81
2021/11/09 01:33:27;;;;;;;6.85;2.95;;;2.60;89.80;;;;;;6275236;28;20067;-80
2021/11/09 01:36:30;;;;;;;12.73;3.70;;;2.60;90.00;;;;;;6276032;28;20047;-81
2021/11/09 01:39:32;;;;;;;8.68;2.75;;;2.60;89.80;;;;;;6276414;28;20049;-80
2021/11/09 01:42:35;;;;;;;8.80;2.80;;;2.60;89.80;;;;;;6277449;28;20068;-80
2021/11/09 01:45:37;;;;;;;5.60;2.38;;;2.60;89.60;;;;;;6276720;28;20051;-81
2021/11/09 01:48:40;;;;;;;6.88;3.65;;;2.50;89.50;;;;;;6276058;28;20421;-81
2021/11/09 01:51:44;;;;;;;6.53;2.80;;;2.50;89.70;;;;;;6276165;28;20049;-82
2021/11/09 01:54:46;;;;;;;10.32;3.65;;;2.50;89.60;;;;;;6276241;28;20045;-82
2021/11/09 01:57:48;;;;;;;7.63;3.35;;;2.50;89.70;;;;;;6275818;28;20053;-82
2021/11/09 02:00:53;;;;;;;11.02;3.53;;;2.40;90.10;;;;;;6276992;28;20136;-83
2021/11/09 02:03:58;;;;;;;7.32;2.95;;;2.40;89.90;;;;;;6277690;28;20124;-82
2021/11/09 02:07:01;;;;;;;8.85;3.20;;;2.40;89.90;;;;;;6277394;28;20067;-83
2021/11/09 02:10:04;;;;;;;5.82;3.03;;;2.30;89.50;;;;;;6276609;28;20063;-82
2021/11/09 02:13:06;;;;;;;7.60;3.30;;;2.30;89.40;;;;;;6276566;28;20057;-82
2021/11/09 02:16:08;;;;;;;13.35;3.88;;;2.30;89.40;;;;;;6277243;28;20124;-83
2021/11/09 02:19:11;;;;;;;8.25;2.90;;;2.30;89.30;;;;;;6278478;28;20056;-82
2021/11/09 02:22:15;;;;;;;15.68;3.35;;;2.30;89.20;;;;;;6275916;28;20509;-82
2021/11/09 02:25:19;;;;;;;9.85;3.40;;;2.30;89.40;;;;;;6275798;28;20037;-82
2021/11/09 02:28:21;;;;;;;11.40;3.17;;;2.30;90.00;;;;;;6276425;28;20041;-82
2021/11/09 02:31:23;;;;;;;9.80;3.00;;;2.30;89.50;;;;;;6276214;28;20059;-82
2021/11/09 02:34:25;;;;;;;9.55;3.38;;;2.30;90.00;;;;;;6275865;28;20045;-83
2021/11/09 02:37:28;;;;;;;9.52;3.97;;;2.30;89.60;;;;;;6277920;28;20033;-83
2021/11/09 02:40:30;;;;;;;14.63;3.85;;;2.30;89.30;;;;;;6275629;28;20049;-82
2021/11/09 02:43:33;;;;;;;10.82;3.90;;;2.20;89.10;;;;;;6275695;28;20080;-82
2021/11/09 02:46:43;;;;;;;13.20;3.90;;;2.20;89.30;;;;;;6276155;28;20091;-81
2021/11/09 02:49:54;;;;;;;10.75;3.67;;;2.20;89.20;;;;;;6275147;28;20528;-82
2021/11/09 02:53:01;;;;;;;9.45;3.50;;;2.20;89.40;;;;;;6276585;28;20477;-83
2021/11/09 02:56:08;;;;;;;12.13;4.03;;;2.10;89.60;;;;;;6276131;28;20045;-82
2021/11/09 02:59:24;;;;;;;17.73;5.22;;;2.10;89.60;;;;;;6275402;28;20059;-82
2021/11/09 03:02:41;;;;;;;8.32;3.20;;;2.10;89.70;;;;;;6275220;28;20151;-82
2021/11/09 03:05:47;;;;;;;10.07;3.47;;;2.10;89.50;;;;;;6275444;28;20044;-82
2021/11/09 03:08:55;;;;;;;12.98;4.28;;;2.10;89.70;;;;;;6275520;28;20045;-82
2021/11/09 03:11:59;;;;;;;;;;;2.10;89.50;;;;;;6276178;28;20410;-81
2021/11/09 03:15:01;;;;;;;12.73;3.95;;;2.10;90.10;;;;;;6275935;28;19996;-81
2021/11/09 03:18:05;;;;;;;10.52;3.63;;;2.10;89.80;;;;;;6275339;28;20052;-82
2021/11/09 03:44:37;;;;;;;11.10;4.53;;;2.00;90.10;;;;;;6275818;28;20060;-82
2021/11/09 03:47:42;;;;;;;14.48;4.22;;;2.00;90.10;;;;;;6278356;28;20057;-82
2021/11/09 03:50:45;;;;;;;5.78;3.83;;;2.00;90.00;;;;;;6276735;28;20055;-82
2021/11/09 03:53:47;;;;;;;7.78;3.58;;;2.00;90.00;;;;;;6276545;28;20076;-82
2021/11/09 03:56:55;;;;;;;8.45;3.85;;;2.00;90.00;;;;;;6275865;28;20049;-82
2021/11/09 04:00:08;;;;;;;14.15;3.70;;;2.00;89.80;;;;;;6276074;28;20120;-82
2021/11/09 04:03:19;;;;;;;16.70;4.57;;;2.00;89.80;;;;;;6277928;28;20057;-82
2021/11/09 04:06:30;;;;;;;13.57;4.18;;;2.00;89.80;;;;;;6276268;28;20041;-81
2021/11/09 04:09:43;;;;;;;24.05;5.57;;;2.00;89.70;;;;;;6274550;28;20528;-81
2021/11/09 04:13:05;;;;;;;16.42;7.05;;;2.00;89.70;;;;;;6273970;28;20044;-82
2021/11/09 04:16:19;;;;;;;18.40;5.30;;;2.00;89.70;;;;;;6275399;28;20098;-81
2021/11/09 04:19:29;;;;;;;13.50;5.15;;;1.90;89.80;;;;;;6275350;28;20049;-81
2021/11/09 04:29:48;;;;;;;23.20;6.07;;;1.90;89.90;;;;;;6297091;28;20098;-81
2021/11/09 05:03:04;;;;;;;17.55;5.22;;;1.90;90.00;;;;;;6249075;28;20058;-84
2021/11/09 05:09:31;;;;;;;9.50;4.38;;;1.90;90.00;;;;;;6247665;28;20128;-83
2021/11/09 05:12:33;;;;;;;11.45;4.28;;;1.90;90.00;;;;;;6247817;28;20128;-84
2021/11/09 05:15:36;;;;;;;12.65;4.68;;;1.90;90.00;;;;;;6247877;28;20056;-82
2021/11/09 05:18:38;;;;;;;16.98;5.20;;;1.90;90.10;;;;;;6248888;28;20093;-84
2021/11/09 05:21:41;;;;;;;11.55;4.63;;;2.00;90.10;;;;;;6247990;28;20055;-83
2021/11/09 05:24:43;;;;;;;13.95;5.78;;;2.00;90.10;;;;;;6247406;28;20119;-81
2021/11/09 05:27:46;;;;;;;10.13;4.43;;;2.00;90.10;;;;;;6248057;28;20056;-84
2021/11/09 05:30:50;;;;;;;14.52;6.55;;;2.00;90.30;;;;;;6248086;28;20415;-84
2021/11/09 05:33:55;;;;;;;10.95;5.78;;;2.10;90.40;;;;;;6248596;28;20045;-83
2021/11/09 05:36:57;;;;;;;10.30;4.85;;;2.10;90.30;;;;;;6233936;28;20055;-82
2021/11/09 05:40:01;;;;;;;14.63;4.68;;;2.20;90.30;;;;;;6231511;28;20046;-84
2021/11/09 05:43:04;;;;;;;10.55;4.75;;;2.20;90.70;;;;;;6233729;28;20064;-83
2021/11/09 05:46:08;;;;;;;13.05;5.63;;;2.20;90.80;;;;;;6233308;28;20127;-81
2021/11/09 05:49:11;;;;;;;15.55;5.30;;;2.20;90.50;;;;;;6234251;28;20045;-82
2021/11/09 05:52:12;;;;;;;11.10;4.80;;;2.20;90.50;;;;;;6233488;28;20050;-79
2021/11/09 05:55:14;;;;;;;14.40;5.10;;;2.30;90.60;;;;;;6237897;28;20491;-84
2021/11/09 05:58:16;;;;;;;14.45;5.18;;;2.30;91.00;;;;;;6230969;28;20076;-83
2021/11/09 06:01:19;;;;;;;26.63;4.97;;;2.40;91.30;;;;;;6229916;28;20052;-83
2021/11/09 06:04:21;;;;;;;11.07;4.85;;;2.40;91.00;;;;;;6230058;28;20054;-82
2021/11/09 06:07:23;;;;;;;12.05;4.57;;;2.50;90.90;;;;;;6229876;28;20054;-83
2021/11/09 06:10:25;;;;;;;24.60;6.50;;;2.50;90.90;;;;;;6230653;28;20152;-85
2021/11/09 06:13:27;;;;;;;17.90;6.95;;;2.50;91.10;;;;;;6230595;28;20068;-84
2021/11/09 06:16:30;;;;;;;13.65;5.82;;;2.50;91.20;;;;;;6231064;28;20041;-84
2021/11/09 06:19:31;;;;;;;12.57;7.45;;;2.60;91.40;;;;;;6231351;28;20052;-83
2021/11/09 06:22:33;;;;;;;21.17;6.13;;;2.70;91.50;;;;;;6232256;28;20073;-82
2021/11/09 06:25:35;;;;;;;13.15;5.53;;;2.70;91.50;;;;;;6231925;28;20046;-86
2021/11/09 06:28:39;;;;;;;18.33;7.10;;;2.80;91.60;;;;;;6230925;28;20579;-83
2021/11/09 06:31:43;;;;;;;35.08;8.32;;;2.90;91.60;;;;;;6230532;28;20136;-85
2021/11/09 06:34:45;;;;;;;21.52;6.95;;;2.90;91.50;;;;;;6230797;28;20054;-83
2021/11/09 06:37:47;;;;;;;18.38;7.55;;;3.00;91.40;;;;;;6230376;28;20053;-84
2021/11/09 06:40:49;;;;;;;20.48;6.50;;;3.10;91.40;;;;;;6230521;28;20053;-83
2021/11/09 06:43:51;;;;;;;16.83;6.43;;;3.10;91.30;;;;;;6231053;28;20053;-84
2021/11/09 06:46:55;;;;;;;16.13;6.05;;;3.20;91.10;;;;;;6231033;28;20110;-84
2021/11/09 06:49:57;;;;;;;18.17;6.38;;;3.20;91.00;;;;;;6230455;28;20046;-84
2021/11/09 06:52:59;;;;;;;11.45;6.60;;;3.20;91.00;;;;;;6232034;28;20475;-81
2021/11/09 06:56:01;;;;;;;20.45;6.35;;;3.20;91.10;;;;;;6230784;28;20052;-83
2021/11/09 06:59:04;;;;;;;10.30;5.05;;;3.30;91.10;;;;;;6231311;28;20197;-83
2021/11/09 07:02:07;;;;;;;18.40;5.50;;;3.30;90.90;;;;;;6231093;28;20092;-85
2021/11/09 07:05:10;;;;;;;14.90;5.50;;;3.40;90.80;;;;;;6231157;28;20508;-83
2021/11/09 07:08:12;;;;;;;18.67;6.93;;;3.40;90.80;;;;;;6231978;28;20396;-83
2021/11/09 07:11:14;;;;;;;17.80;8.52;;;3.40;90.90;;;;;;6232283;28;20106;-84
2021/11/09 07:14:16;;;;;;;21.00;8.05;;;3.40;91.00;;;;;;6232485;28;20065;-83
2021/11/09 07:17:19;;;;;;;20.10;7.70;;;3.50;91.10;;;;;;6230606;28;20422;-82
2021/11/09 07:20:22;;;;;;;18.27;7.20;;;3.60;91.20;;;;;;6230353;28;20041;-81
2021/11/09 07:23:24;;;;;;;22.80;8.02;;;3.70;91.00;;;;;;6231059;28;20077;-83
2021/11/09 07:26:27;;;;;;;25.33;7.88;;;3.80;91.10;;;;;;6229892;28;20522;-83
2021/11/09 07:29:29;;;;;;;29.63;7.72;;;3.90;91.00;;;;;;6229945;28;20046;-84
2021/11/09 07:32:32;;;;;;;20.55;7.57;;;4.00;90.90;;;;;;6231072;28;20133;-83
2021/11/09 07:35:34;;;;;;;20.80;8.23;;;4.20;90.90;;;;;;6231344;28;20076;-85
2021/11/09 07:38:36;;;;;;;25.17;7.80;;;4.30;90.90;;;;;;6202181;28;20042;-83
2021/11/09 07:41:38;;;;;;;22.92;8.18;;;4.50;90.80;;;;;;6222758;28;20034;-82
2021/11/09 07:44:39;;;;;;;30.58;11.68;;;4.70;90.60;;;;;;6206079;28;20093;-84
2021/11/09 07:47:43;;;;;;;41.25;22.25;;;4.90;90.60;;;;;;6190673;28;20094;-82
2021/11/09 07:50:45;;;;;;;50.92;24.75;;;5.00;90.50;;;;;;6185105;28;20062;-84
2021/11/09 07:53:48;;;;;;;33.15;17.13;;;5.20;90.10;;;;;;6202076;28;20050;-83
2021/11/09 07:56:58;;;;;;;22.27;11.05;;;5.40;89.90;;;;;;6195780;28;20174;-82
2021/11/09 08:00:05;;;;;;;16.75;7.32;;;5.70;90.10;;;;;;6188108;28;20046;-79
2021/11/09 08:03:13;;;;;;;17.38;7.43;;;6.10;88.70;;;;;;6215644;28;20085;-82
2021/11/09 08:06:19;;;;;;;16.67;6.67;;;6.50;87.10;;;;;;6186925;28;20058;-80
2021/11/09 08:09:26;;;;;;;13.80;7.00;;;6.80;86.00;;;;;;6194897;28;20289;-79
2021/11/09 08:12:27;;;;;;;18.10;6.60;;;7.10;85.50;;;;;;6195876;28;20176;-86
2021/11/09 08:15:29;;;;;;;14.80;4.50;;;7.40;83.30;;;;;;6185903;28;20053;-81
2021/11/09 08:18:32;;;;;;;18.73;5.05;;;7.60;81.90;;;;;;6219835;28;20106;-80
2021/11/09 08:21:36;;;;;;;10.93;5.20;;;7.80;81.30;;;;;;6217898;28;20050;-78
2021/11/09 08:24:38;;;;;;;21.08;5.75;;;8.00;80.20;;;;;;6217946;28;20121;-82
2021/11/09 08:27:40;;;;;;;10.73;5.13;;;8.30;79.80;;;;;;6218848;28;20081;-83
2021/11/09 08:30:42;;;;;;;15.27;5.72;;;8.70;78.00;;;;;;6209551;28;20486;-81
2021/11/09 08:33:45;;;;;;;25.85;12.10;;;9.10;76.80;;;;;;6204761;28;20106;-82
2021/11/09 08:36:48;;;;;;;12.25;5.07;;;9.40;75.70;;;;;;6204612;28;20102;-84
2021/11/09 08:39:56;;;;;;;12.32;5.63;;;9.70;74.20;;;;;;6204695;28;20054;-83
2021/11/09 08:43:02;;;;;;;12.10;4.88;;;10.00;72.90;;;;;;6206206;28;20477;-84
2021/11/09 08:46:10;;;;;;;7.93;4.80;;;10.30;72.40;;;;;;6208169;28;20042;-82
2021/11/09 08:49:15;;;;;;;11.05;6.45;;;10.50;70.20;;;;;;6207279;28;20054;-82
2021/11/09 08:52:30;;;;;;;8.80;3.53;;;10.60;69.90;;;;;;6207922;28;20510;-87
2021/11/09 08:55:42;;;;;;;8.88;3.60;;;10.80;68.80;;;;;;6205948;28;20051;-83
2021/11/09 09:05:40;;;;;;;11.95;4.65;;;10.70;66.30;;;;;;6156289;28;20039;-83
2021/11/09 09:08:42;;;;;;;8.77;3.65;;;10.80;67.10;;;;;;6206946;28;20054;-79
2021/11/09 09:11:45;;;;;;;9.23;3.20;;;10.90;67.50;;;;;;6209634;28;20054;-80
2021/11/09 09:14:47;;;;;;;11.20;4.05;;;11.20;66.40;;;;;;6210007;28;20058;-82
2021/11/09 09:17:49;;;;;;;14.85;4.95;;;11.30;66.50;;;;;;6211033;28;20112;-80
2021/11/09 09:20:55;;;;;;;10.07;5.00;;;11.40;65.90;;;;;;6218360;28;20120;-81
2021/11/09 09:24:01;;;;;;;9.45;3.60;;;11.60;65.00;;;;;;6239193;28;20046;-79
2021/11/09 09:27:15;;;;;;;7.60;3.03;;;11.80;64.80;;;;;;6233274;28;20050;-79
2021/11/09 09:30:32;;;;;;;15.18;3.33;;;11.70;63.60;;;;;;6231287;28;20046;-79
2021/11/09 09:53:59;;;;;;;11.90;4.60;;;12.90;61.80;;;;;;6205613;28;20429;-80
2021/11/09 09:57:01;;;;;;;8.57;3.50;;;13.00;61.50;;;;;;6208860;28;20611;-82
2021/11/09 10:00:05;;;;;;;7.18;3.22;;;13.20;61.00;;;;;;6205406;28;20105;-79
2021/11/09 10:03:07;;;;;;;5.25;3.08;;;13.30;61.00;;;;;;6204349;28;20105;-79
2021/11/09 10:06:10;;;;;;;8.32;3.17;;;13.40;59.70;;;;;;6204467;28;20137;-82
2021/11/09 10:09:31;;;;;;;9.18;3.10;;;13.70;60.20;;;;;;6205786;28;20053;-84
2021/11/09 10:12:34;;;;;;;6.78;2.50;;;13.80;58.40;;;;;;6206479;28;20054;-86
2021/11/09 10:15:37;;;;;;;5.88;3.28;;;13.80;57.90;;;;;;6206828;28;20140;-81
2021/11/09 10:18:44;;;;;;;7.03;3.38;;;13.90;57.70;;;;;;6201448;28;20058;-83
2021/11/09 10:21:45;;;;;;;4.30;2.47;;;13.70;56.40;;;;;;6207172;28;20419;-82
2021/11/09 10:24:55;;;;;;;9.95;2.75;;;13.80;57.40;;;;;;6206724;28;20057;-80
2021/11/09 10:28:03;;;;;;;6.15;2.40;;;14.00;56.60;;;;;;6210195;28;20042;-79
2021/11/09 10:31:08;;;;;;;12.30;3.22;;;14.00;55.50;;;;;;6207273;28;20116;-77
2021/11/09 10:34:21;;;;;;;9.60;2.83;;;14.00;55.80;;;;;;6206602;28;20144;-82
2021/11/09 10:37:27;;;;;;;6.07;2.80;;;14.10;55.90;;;;;;6194131;28;20062;-79
2021/11/09 10:40:32;;;;;;;10.48;2.38;;;14.40;55.40;;;;;;6189149;28;20121;-79
2021/11/09 10:43:35;;;;;;;4.32;1.60;;;14.50;53.10;;;;;;6199272;28;20118;-80
2021/11/09 10:46:37;;;;;;;8.48;2.70;;;14.40;53.30;;;;;;6203047;28;20061;-80
2021/11/09 10:49:57;;;;;;;5.78;1.45;;;14.40;51.70;;;;;;6204520;28;20692;-79
2021/11/09 10:53:06;;;;;;;7.05;2.30;;;14.30;50.50;;;;;;6203571;28;20105;-82
2021/11/09 10:56:22;;;;;;;8.38;2.08;;;14.10;50.90;;;;;;6202464;28;20042;-79
2021/11/09 10:59:47;;;;;;;3.33;1.42;;;14.10;50.10;;;;;;6205474;28;20054;-78
2021/11/09 11:06:13;;;;;;;7.88;1.30;;;13.80;50.30;;;;;;6205376;28;20467;-81
2021/11/09 11:09:18;;;;;;;9.23;1.85;;;13.90;50.50;;;;;;6207332;28;20093;-79
2021/11/09 11:12:26;;;;;;;3.50;1.58;;;13.90;51.20;;;;;;6217301;28;20050;-83
2021/11/09 11:15:28;;;;;;;6.28;2.00;;;14.10;49.40;;;;;;6209996;28;20050;-83
2021/11/09 11:18:32;;;;;;;6.85;2.28;;;14.10;49.80;;;;;;6205932;28;20189;-86
2021/11/09 11:21:34;;;;;;;5.47;1.50;;;14.20;49.70;;;;;;6204970;28;20054;-83
2021/11/09 11:24:38;;;;;;;8.00;1.65;;;14.30;50.10;;;;;;6228961;28;20069;-85
2021/11/09 11:27:41;;;;;;;7.97;2.00;;;14.50;50.30;;;;;;6228688;28;20065;-82
2021/11/09 11:30:43;;;;;;;4.55;1.80;;;14.70;49.00;;;;;;6228663;28;20138;-81
2021/11/09 11:33:46;;;;;;;8.02;1.60;;;14.60;49.10;;;;;;6231896;28;20052;-80
2021/11/09 11:36:49;;;;;;;8.43;1.80;;;14.60;48.90;;;;;;6233228;28;20054;-85
2021/11/09 11:39:54;;;;;;;8.43;2.33;;;14.50;49.90;;;;;;6209914;28;20049;-81
2021/11/09 11:42:57;;;;;;;7.78;1.63;;;14.90;49.40;;;;;;6205876;28;20137;-83
2021/11/09 11:45:59;;;;;;;3.13;1.30;;;15.00;48.50;;;;;;6205748;28;20048;-83
2021/11/09 11:49:02;;;;;;;4.28;1.60;;;15.10;48.30;;;;;;6203742;28;20109;-84
2021/11/09 11:52:30;;;;;;;6.70;1.55;;;14.90;47.80;;;;;;6202499;28;20066;-83
2021/11/09 11:55:32;;;;;;;4.85;1.77;;;14.90;48.90;;;;;;6203622;28;20436;-81
2021/11/09 11:58:35;;;;;;;4.90;1.67;;;15.20;49.20;;;;;;6208116;28;20050;-83
2021/11/09 12:01:41;;;;;;;4.13;1.52;;;15.60;48.20;;;;;;6204774;28;20046;-83
2021/11/09 12:04:52;;;;;;;5.07;2.10;;;15.50;47.90;;;;;;6204539;28;20053;-80
2021/11/09 12:07:55;;;;;;;6.63;1.90;;;15.40;48.00;;;;;;6204215;28;20049;-81
2021/11/09 12:10:57;;;;;;;6.80;2.03;;;15.50;48.50;;;;;;6206774;28;20054;-81
2021/11/09 12:14:02;;;;;;;5.55;1.65;;;15.90;48.70;;;;;;6203917;28;20482;-79
2021/11/09 12:17:05;;;;;;;12.00;2.63;;;15.90;47.60;;;;;;6206774;28;20132;-80
2021/11/09 12:20:09;;;;;;;8.93;2.95;;;15.80;47.50;;;;;;6206821;28;20046;-80
2021/11/09 12:23:16;;;;;;;10.27;2.15;;;15.90;48.20;;;;;;6197928;28;20042;-79
2021/11/09 12:26:43;;;;;;;7.80;1.63;;;16.10;47.70;;;;;;6202769;28;20054;-80
2021/11/09 12:29:53;;;;;;;4.20;1.50;;;16.30;47.00;;;;;;6202400;28;20117;-82
2021/11/09 12:33:03;;;;;;;8.32;2.05;;;16.10;47.60;;;;;;6203289;28;20054;-81
2021/11/09 12:36:23;;;;;;;4.60;1.80;;;16.20;47.30;;;;;;6203616;28;20125;-80
2021/11/09 12:39:24;;;;;;;5.05;1.33;;;16.30;46.70;;;;;;6203247;28;20057;-79
2021/11/09 12:42:46;;;;;;;11.05;1.83;;;16.70;46.60;;;;;;6203258;28;20094;-81
2021/11/09 12:45:53;;;;;;;6.45;1.70;;;17.00;45.50;;;;;;6196266;28;20105;-79
2021/11/09 12:48:58;;;;;;;8.18;1.80;;;17.10;44.60;;;;;;6207862;28;20046;-80
2021/11/09 12:52:00;;;;;;;4.55;1.67;;;17.10;45.00;;;;;;6207935;28;20050;-83
2021/11/09 12:55:11;;;;;;;3.95;1.60;;;17.00;43.20;;;;;;6208889;28;20054;-79
2021/11/09 12:58:21;;;;;;;5.20;1.30;;;16.60;45.00;;;;;;6207342;28;20054;-80
2021/11/09 13:01:34;;;;;;;11.10;1.65;;;16.80;44.90;;;;;;6207363;28;20054;-81
2021/11/09 13:04:45;;;;;;;5.10;1.48;;;17.10;45.00;;;;;;6206373;28;20050;-79
2021/11/09 13:07:48;;;;;;;9.65;3.40;;;17.20;43.40;;;;;;6206849;28;20050;-80
2021/11/09 13:10:49;;;;;;;4.68;1.45;;;17.20;43.60;;;;;;6207222;28;20416;-79
2021/11/09 13:14:04;;;;;;;6.13;2.65;;;16.80;43.30;;;;;;6206591;28;20570;-79
2021/11/09 13:17:19;;;;;;;6.22;2.30;;;16.70;44.70;;;;;;6206343;28;20105;-81
2021/11/09 13:20:24;;;;;;;3.60;1.65;;;16.80;43.80;;;;;;6204286;28;20050;-79
2021/11/09 13:23:28;;;;;;;6.47;1.35;;;16.60;43.80;;;;;;6203934;28;20053;-78
2021/11/09 13:26:30;;;;;;;6.85;1.48;;;16.10;44.40;;;;;;6227976;28;20054;-78
2021/11/09 13:29:47;;;;;;;6.85;1.63;;;15.70;45.30;;;;;;6236167;28;20512;-77
2021/11/09 13:32:53;;;;;;;5.93;4.28;;;15.50;46.40;;;;;;6238456;28;20053;-78
2021/11/09 13:35:56;;;;;;;5.25;1.63;;;15.50;46.90;;;;;;6239750;28;20041;-78
2021/11/09 13:38:58;;;;;;;3.40;1.60;;;15.40;47.00;;;;;;6238554;28;20049;-77
2021/11/09 13:42:00;;;;;;;4.80;1.42;;;15.40;47.60;;;;;;6213521;28;20101;-78
2021/11/09 13:45:02;;;;;;;3.95;1.42;;;15.60;47.70;;;;;;6208671;28;20523;-83
2021/11/09 13:48:13;;;;;;;4.63;1.55;;;15.60;46.70;;;;;;6208094;28;20054;-83
2021/11/09 13:51:17;;;;;;;1.67;0.65;;;15.40;47.20;;;;;;6207193;28;20114;-79
2021/11/09 13:54:24;;;;;;;8.13;2.45;;;15.20;47.50;;;;;;6207780;28;20050;-80
2021/11/09 13:57:28;;;;;;;5.68;1.45;;;15.30;48.10;;;;;;6206738;28;20057;-82
2021/11/09 14:00:36;;;;;;;6.45;1.90;;;15.20;47.70;;;;;;6206826;28;20057;-80
2021/11/09 14:04:00;;;;;;;6.90;1.38;;;15.20;47.70;;;;;;6205768;28;20141;-82
2021/11/09 14:07:31;;;;;;;5.18;1.48;;;15.20;47.50;;;;;;6205382;28;20054;-79
2021/11/09 14:11:06;;;;;;;7.63;1.10;;;15.30;47.50;;;;;;6205544;28;20057;-79
2021/11/09 14:17:34;;;;;;;2.88;0.95;;;15.00;47.60;;;;;;6179932;28;20444;-79
2021/11/09 14:20:37;;;;;;;4.63;0.93;;;15.00;48.20;;;;;;6202829;28;20054;-79
2021/11/09 14:23:43;;;;;;;3.30;0.80;;;14.90;48.30;;;;;;6203315;28;20092;-79
2021/11/09 14:26:46;;;;;;;3.45;1.30;;;14.90;48.40;;;;;;6201148;28;20059;-80
2021/11/09 14:29:53;;;;;;;4.18;1.13;;;14.80;48.00;;;;;;6207034;28;20047;-82
2021/11/09 14:33:05;;;;;;;6.22;1.20;;;14.80;48.60;;;;;;6208117;28;20042;-81
2021/11/09 14:36:27;;;;;;;7.47;1.70;;;14.70;48.50;;;;;;6209194;28;20101;-81
2021/11/09 14:39:29;;;;;;;4.63;1.00;;;14.60;48.80;;;;;;6218678;28;20058;-82
2021/11/09 14:42:46;;;;;;;4.35;0.93;;;14.50;49.20;;;;;;6218408;28;20061;-82
2021/11/09 14:45:53;;;;;;;4.63;1.50;;;14.50;49.50;;;;;;6204974;28;20034;-82
2021/11/09 14:49:05;;;;;;;2.47;0.75;;;14.70;49.50;;;;;;6206050;28;20081;-83
2021/11/09 14:52:09;;;;;;;3.95;0.90;;;14.70;49.30;;;;;;6208793;28;20074;-80
2021/11/09 14:55:23;;;;;;;8.15;2.08;;;14.90;49.10;;;;;;6208135;28;20050;-83
2021/11/09 14:58:32;;;;;;;6.93;1.40;;;14.90;49.00;;;;;;6206921;28;20042;-85
2021/11/09 15:01:37;;;;;;;6.40;1.75;;;14.80;49.00;;;;;;6204736;28;20177;-84
2021/11/09 15:04:42;;;;;;;7.10;1.23;;;14.70;49.20;;;;;;6204965;28;20046;-79
2021/11/09 15:07:57;;;;;;;6.25;1.73;;;14.50;49.70;;;;;;6205949;28;20057;-80
2021/11/09 15:11:13;;;;;;;6.22;1.17;;;14.30;50.80;;;;;;6206683;28;20057;-84
2021/11/09 15:27:43;;;;;;;2.55;0.93;;;13.60;52.10;;;;;;6202111;28;20543;-82
2021/11/09 15:30:49;;;;;;;3.22;0.73;;;13.30;52.50;;;;;;6207214;28;20054;-82
2021/11/09 15:33:53;;;;;;;3.90;1.13;;;13.10;53.10;;;;;;6205515;28;20051;-82
2021/11/09 15:37:00;;;;;;;3.25;0.70;;;12.90;53.20;;;;;;6196204;28;20074;-82
2021/11/09 15:40:10;;;;;;;4.35;0.88;;;12.70;54.10;;;;;;6182922;28;20051;-81
2021/11/09 15:43:13;;;;;;;5.47;1.90;;;12.50;54.60;;;;;;6185435;28;20090;-80
2021/11/09 15:46:15;;;;;;;3.58;1.27;;;12.30;55.10;;;;;;6209178;28;20427;-81
2021/11/09 15:49:17;;;;;;;1.92;0.82;;;12.10;55.60;;;;;;6206810;28;20177;-82
2021/11/09 15:52:19;;;;;;;7.05;1.27;;;12.00;56.00;;;;;;6165226;28;20051;-82
2021/11/09 15:55:22;;;;;;;3.00;0.80;;;11.80;56.30;;;;;;6181862;28;20054;-82
2021/11/09 15:58:24;;;;;;;3.08;1.48;;;11.70;56.70;;;;;;6183254;28;20051;-82
2021/11/09 16:01:26;;;;;;;4.32;1.65;;;11.50;57.20;;;;;;6170089;28;20527;-82
2021/11/09 16:04:31;;;;;;;5.47;1.90;;;11.40;58.10;;;;;;6165026;29;20071;-84
2021/11/09 16:07:34;;;;;;;9.48;3.00;;;11.20;58.50;;;;;;6185666;28;20042;-83
2021/11/09 16:10:39;;;;;;;6.57;2.15;;;11.10;59.10;;;;;;6213570;28;20050;-83
2021/11/09 16:13:41;;;;;;;7.55;2.88;;;11.00;59.50;;;;;;6213386;28;20109;-84
2021/11/09 16:16:43;;;;;;;3.60;1.90;;;10.90;60.20;;;;;;6213825;28;20058;-83
2021/11/09 16:19:47;;;;;;;4.40;1.42;;;10.80;60.60;;;;;;6212703;28;20664;-84
2021/11/09 16:22:49;;;;;;;5.38;1.58;;;10.70;60.50;;;;;;6213163;28;20051;-83
2021/11/09 16:25:52;;;;;;;5.50;2.00;;;10.60;60.80;;;;;;6212699;28;20070;-82
2021/11/09 16:28:54;;;;;;;5.63;2.40;;;10.50;61.00;;;;;;6211602;28;20042;-83
2021/11/09 16:31:56;;;;;;;5.25;1.60;;;10.50;61.40;;;;;;6211780;28;20456;-82
2021/11/09 16:35:05;;;;;;;8.30;2.08;;;10.30;61.70;;;;;;6214369;28;20057;-82
2021/11/09 16:38:11;;;;;;;4.93;1.65;;;10.20;62.60;;;;;;6212743;28;20053;-82
2021/11/09 16:44:18;;;;;;;4.75;1.92;;;9.90;63.80;;;;;;6197600;28;20420;-82
2021/11/09 16:47:20;;;;;;;8.18;2.40;;;9.70;64.30;;;;;;6183082;28;20054;-83
2021/11/09 16:50:58;;;;;;;9.93;1.80;;;9.60;64.90;;;;;;6181689;28;20050;-85
2021/11/09 16:54:03;;;;;;;4.82;1.40;;;9.50;65.50;;;;;;6199386;28;20053;-85
2021/11/09 16:57:30;;;;;;;6.88;1.60;;;9.30;66.10;;;;;;6189143;28;20066;-84
2021/11/09 17:00:40;;;;;;;3.88;1.15;;;9.10;66.80;;;;;;6177003;28;20123;-84
2021/11/09 18:13:50;;;;;;;4.10;2.05;;;7.10;76.30;;;;;;6182294;28;20416;-85
2021/11/09 18:20:14;;;;;;;9.18;2.85;;;6.90;77.00;;;;;;6198684;28;20107;-82
2021/11/09 18:23:18;;;;;;;7.45;2.22;;;6.80;77.00;;;;;;6206877;28;20047;-82
2021/11/09 18:26:39;;;;;;;9.60;1.85;;;6.80;77.20;;;;;;6194695;28;20093;-84
2021/11/09 18:29:41;;;;;;;13.85;2.85;;;6.70;77.30;;;;;;6187487;28;20051;-84
2021/11/09 18:32:43;;;;;;;5.07;2.05;;;6.70;78.70;;;;;;6189750;28;20054;-81
2021/11/09 18:35:50;;;;;;;11.38;2.63;;;6.60;79.20;;;;;;6189416;28;20058;-81
2021/11/09 18:38:53;;;;;;;7.80;2.85;;;6.60;79.50;;;;;;6187119;28;20051;-80
2021/11/09 18:41:55;;;;;;;9.90;2.50;;;6.60;79.20;;;;;;6188728;28;20051;-82
2021/11/09 18:44:59;;;;;;;3.22;1.65;;;6.60;79.50;;;;;;6187410;28;20046;-81
2021/11/09 18:48:01;;;;;;;5.70;2.00;;;6.50;79.00;;;;;;6186244;28;20540;-80
2021/11/09 18:51:03;;;;;;;9.85;2.35;;;6.40;78.80;;;;;;6187094;28;20051;-83
2021/11/09 18:54:07;;;;;;;20.00;2.58;;;6.40;78.90;;;;;;6187393;28;20412;-81
2021/11/09 18:57:11;;;;;;;3.63;2.00;;;6.30;79.50;;;;;;6185550;28;20043;-84
2021/11/09 19:00:14;;;;;;;6.60;2.00;;;6.20;79.40;;;;;;6207486;28;20097;-81
2021/11/09 19:03:16;;;;;;;5.95;2.40;;;6.10;79.50;;;;;;6209672;28;20691;-82
2021/11/09 19:06:18;;;;;;;3.50;2.17;;;6.10;79.50;;;;;;6207644;28;20066;-80
2021/11/09 19:09:22;;;;;;;10.55;3.97;;;6.10;80.20;;;;;;6207445;28;20050;-81
2021/11/09 19:12:30;;;;;;;12.45;3.67;;;6.00;81.70;;;;;;6214891;28;20053;-85
2021/11/09 19:15:33;;;;;;;9.35;4.43;;;6.00;81.90;;;;;;6189429;28;20047;-80